Change the Weather History Date:

Saturday, March 2, 2013

  Actual Average Record
Temperature  
Mean Temperature 30 °F -  
Max Temperature 32 °F 51 °F 78 °F (2012)
Min Temperature 28 °F 32 °F 17 °F (2005)
Degree Days  
Heating Degree Days 34    
Moisture  
Dew Point 30 °F    
Average Humidity 93    
Maximum Humidity 100    
Minimum Humidity 72    
Precipitation  
Precipitation 0.00 in - - ()
Sea Level Pressure  
Sea Level Pressure 30.12 in    
Wind  
Wind Speed 9 mph (NW)    
Max Wind Speed 16 mph    
Max Gust Speed 21 mph    
Visibility 9 miles    
Events Rain , Snow    
Averages and records for this station are not official NWS values.
T = Trace of Precipitation, MM = Missing Value Source: NWS Daily Summary

Daily Weather History Graph

Daily Weather History Graph

Search for Another Location

Airport or City:

Trip Planner

Search our weather history database for the weather conditions in past years. The results will help you decide how hot, cold, wet, or windy it might be!

Date:

Astronomy

Mar. 02, 2013 Rise Set
Actual Time 6:18 AM CST 5:45 PM CST
Civil Twilight 5:53 AM CST 6:11 PM CST
Nautical Twilight 5:23 AM CST 6:41 PM CST
Astronomical Twilight 4:53 AM CST 7:11 PM CST
Moon 11:14 PM CST (3/2) 8:56 AM CST (3/2)
Length of Visible Light 12h 18m
Length of Day
11h 26m
Waning Gibbous, 74% of the Moon is Illuminated
Mar 2
Waning Gibbous
Mar 4
Last Quarter
Mar 11
New
Mar 19
First Quarter
Mar 27
Full

Hourly Weather History & Observations

Time (CST) Temp. Windchill Dew Point Humidity Pressure Visibility Wind Dir Wind Speed Gust Speed Precip Events Conditions
12:02 AM 32.0 °F 25.6 °F 32.0 °F 100% 30.09 in 10.0 mi NW 6.9 mph - N/A   Overcast
12:21 AM 32.0 °F 25.6 °F 32.0 °F 100% 30.09 in 10.0 mi NW 6.9 mph - N/A   Overcast
12:32 AM 32.0 °F 25.6 °F 32.0 °F 100% 30.06 in 6.0 mi WNW 6.9 mph - N/A Snow Light Snow
12:33 AM 32.0 °F 26.4 °F 32.0 °F 100% 30.09 in 10.0 mi WNW 5.8 mph - N/A   Overcast
12:36 AM 32.0 °F 24.8 °F 32.0 °F 100% 30.09 in 10.0 mi WNW 8.1 mph - N/A   Overcast
12:39 AM 32.0 °F 24.8 °F 32.0 °F 100% 30.09 in 10.0 mi WNW 8.1 mph - N/A   Overcast
12:41 AM 32.0 °F 25.6 °F 32.0 °F 100% 30.09 in 10.0 mi WNW 6.9 mph - N/A   Overcast
12:49 AM 32.0 °F 24.8 °F 32.0 °F 100% 30.06 in 10.0 mi WNW 8.1 mph - N/A Snow Light Snow
12:51 AM 32.0 °F 24.8 °F 32.0 °F 100% 30.09 in 10.0 mi NW 8.1 mph - N/A   Light Drizzle
12:55 AM 31.5 °F 24.2 °F 31.5 °F 100% 30.09 in 10.0 mi NW 8.1 mph - 0.00 in   Light Freezing Rain
12:56 AM 32.0 °F 24.8 °F 32.0 °F 100% 30.14 in 6.0 mi NW 8.1 mph - N/A Snow Light Snow
1:03 AM 32.0 °F 24.2 °F 32.0 °F 100% 30.09 in 10.0 mi NW 9.2 mph - N/A   Light Drizzle
1:05 AM 32.0 °F 24.8 °F 32.0 °F 100% 30.09 in 10.0 mi NW 8.1 mph - N/A   Light Drizzle
1:06 AM 32.0 °F 24.8 °F 32.0 °F 100% 30.07 in 6.0 mi NW 8.1 mph - N/A Snow Light Snow
1:08 AM 32.0 °F 24.8 °F 32.0 °F 100% 30.09 in 10.0 mi WNW 8.1 mph - N/A   Overcast
1:17 AM 32.0 °F 25.6 °F 32.0 °F 100% 30.09 in 10.0 mi NW 6.9 mph - N/A   Overcast
1:19 AM 32.0 °F 25.6 °F 32.0 °F 100% 30.09 in 10.0 mi NW 6.9 mph - N/A   Overcast
1:27 AM 32.0 °F 25.6 °F 32.0 °F 100% 30.09 in 10.0 mi WNW 6.9 mph - N/A   Overcast
1:32 AM 32.0 °F 25.6 °F 32.0 °F 100% 30.06 in 6.0 mi WNW 6.9 mph - N/A Snow Light Snow
1:33 AM 32.0 °F 25.6 °F 32.0 °F 100% 30.09 in 10.0 mi WNW 6.9 mph - N/A   Overcast
1:42 AM 32.0 °F 26.4 °F 32.0 °F 100% 30.09 in 7.0 mi WNW 5.8 mph - N/A Snow Light Snow
1:46 AM 32.0 °F 26.4 °F 32.0 °F 100% 30.09 in 6.0 mi WNW 5.8 mph - N/A Snow Light Snow
1:48 AM 32.0 °F 24.8 °F 32.0 °F 100% 30.09 in 7.0 mi WNW 8.1 mph - N/A Snow Light Snow
1:49 AM 32.0 °F 24.8 °F 32.0 °F 100% 30.06 in 6.0 mi WNW 8.1 mph - N/A Snow Light Snow
1:54 AM 32.0 °F 24.8 °F 32.0 °F 100% 30.06 in 6.0 mi NW 8.1 mph - N/A Snow Light Snow
1:55 AM 31.3 °F 24.7 °F 31.3 °F 100% 30.08 in 10.0 mi NW 6.9 mph - 0.00 in   Overcast
1:58 AM 32.0 °F 24.8 °F 32.0 °F 100% 30.13 in 6.0 mi NW 8.1 mph - N/A Snow Light Snow
2:01 AM 32.0 °F 24.8 °F 32.0 °F 100% 30.05 in 6.0 mi WNW 8.1 mph - N/A Snow Light Snow
2:18 AM 32.0 °F 25.6 °F 32.0 °F 100% 30.08 in 10.0 mi WNW 6.9 mph - N/A   Overcast
2:20 AM 32.0 °F 24.8 °F 32.0 °F 100% 30.05 in 6.0 mi West 8.1 mph - N/A Snow Light Snow
2:23 AM 32.0 °F 24.2 °F 32.0 °F 100% 30.08 in 10.0 mi WNW 9.2 mph - N/A   Overcast
2:28 AM 32.0 °F 24.2 °F 32.0 °F 100% 30.07 in 10.0 mi WNW 9.2 mph - N/A   Overcast
2:31 AM 32.0 °F 24.2 °F 32.0 °F 100% 30.05 in 6.0 mi WNW 9.2 mph - N/A Snow Light Snow
2:41 AM 32.0 °F 24.2 °F 32.0 °F 100% 30.07 in 10.0 mi WNW 9.2 mph - N/A   Overcast
2:55 AM 31.3 °F 23.3 °F 31.3 °F 100% 30.07 in 10.0 mi WNW 9.2 mph - 0.00 in   Overcast
2:56 AM 32.0 °F 24.2 °F 32.0 °F 100% 30.10 in 6.0 mi West 9.2 mph - N/A Snow Light Snow
3:15 AM 32.0 °F 24.2 °F 32.0 °F 100% 30.06 in 6.0 mi WNW 9.2 mph - N/A Snow Light Snow
3:16 AM 32.0 °F 24.2 °F 32.0 °F 100% 30.06 in 6.0 mi WNW 9.2 mph - N/A Snow Light Snow
3:20 AM 32.0 °F 23.6 °F 32.0 °F 100% 30.04 in 6.0 mi WNW 10.4 mph - N/A Snow Light Snow
3:31 AM 32.0 °F 24.8 °F 32.0 °F 100% 30.06 in 7.0 mi WNW 8.1 mph - N/A   Light Drizzle
3:38 AM 32.0 °F 24.8 °F 32.0 °F 100% 30.06 in 8.0 mi WNW 8.1 mph - N/A   Overcast
3:41 AM 32.0 °F 24.2 °F 32.0 °F 100% 30.06 in 9.0 mi WNW 9.2 mph - N/A   Overcast
3:44 AM 32.0 °F 23.6 °F 32.0 °F 100% 30.06 in 9.0 mi WNW 10.4 mph - N/A   Overcast
3:52 AM 32.0 °F 24.8 °F 32.0 °F 100% 30.06 in 10.0 mi WNW 8.1 mph - N/A   Overcast
3:54 AM 32.0 °F 23.6 °F 32.0 °F 100% 30.06 in 10.0 mi WNW 10.4 mph - N/A   Overcast
3:55 AM 31.1 °F 23.1 °F 31.1 °F 100% 30.06 in 10.0 mi WNW 9.2 mph - 0.00 in   Overcast
3:56 AM 32.0 °F 23.6 °F 32.0 °F 100% 30.03 in 6.0 mi WNW 10.4 mph - N/A Snow Light Snow
4:08 AM 32.0 °F 23.0 °F 32.0 °F 100% 30.06 in 10.0 mi WNW 11.5 mph - N/A   Overcast
4:10 AM 32.0 °F 23.6 °F 32.0 °F 100% 30.06 in 10.0 mi WNW 10.4 mph - N/A   Overcast
4:15 AM 32.0 °F 23.6 °F 32.0 °F 100% 30.04 in 6.0 mi WNW 10.4 mph - N/A Snow Light Snow
4:23 AM 32.0 °F 23.6 °F 32.0 °F 100% 30.06 in 6.0 mi WNW 10.4 mph - N/A Snow Light Snow
4:30 AM 32.0 °F 24.2 °F 32.0 °F 100% 30.04 in 6.0 mi WNW 9.2 mph - N/A Snow Light Snow
4:35 AM 32.0 °F 24.2 °F 32.0 °F 100% 30.07 in 8.0 mi WNW 9.2 mph - N/A   Overcast
4:45 AM 32.0 °F 23.0 °F 32.0 °F 100% 30.05 in 6.0 mi WNW 11.5 mph - N/A Snow Light Snow
4:53 AM 32.0 °F 23.6 °F 32.0 °F 100% 30.07 in 10.0 mi WNW 10.4 mph - N/A   Overcast
4:55 AM 31.3 °F 23.3 °F 31.3 °F 100% 30.07 in 10.0 mi WNW 9.2 mph - 0.00 in   Overcast
5:15 AM 32.0 °F 24.2 °F 32.0 °F 100% 30.04 in 6.0 mi NW 9.2 mph - N/A Snow Light Snow
5:23 AM 32.0 °F 24.8 °F 32.0 °F 100% 30.07 in 10.0 mi NW 8.1 mph - N/A   Overcast
5:45 AM 32.0 °F 23.6 °F 32.0 °F 100% 30.05 in 6.0 mi NW 10.4 mph - N/A Snow Light Snow
5:51 AM 32.0 °F 24.8 °F 32.0 °F 100% 30.08 in 10.0 mi NW 8.1 mph - N/A   Overcast
5:53 AM 32.0 °F 24.8 °F 32.0 °F 100% 30.08 in 10.0 mi NW 8.1 mph - N/A   Overcast
5:55 AM 31.8 °F 25.4 °F 31.8 °F 100% 30.08 in 10.0 mi NW 6.9 mph - 0.00 in   Overcast
5:56 AM 32.0 °F 25.6 °F 32.0 °F 100% 30.05 in 6.0 mi NW 6.9 mph - N/A Snow Light Snow
6:13 AM 32.0 °F 25.6 °F 32.0 °F 100% 30.08 in 10.0 mi NW 6.9 mph - N/A   Overcast
6:15 AM 32.0 °F 24.8 °F 32.0 °F 100% 30.08 in 10.0 mi NW 8.1 mph - N/A   Overcast
6:16 AM 32.0 °F 25.6 °F 32.0 °F 100% 30.08 in 10.0 mi NW 6.9 mph - N/A   Overcast
6:25 AM 32.0 °F 24.8 °F 32.0 °F 100% 30.06 in 6.0 mi NW 8.1 mph - N/A Snow Light Snow
6:35 AM 32.0 °F 25.6 °F 32.0 °F 100% 30.09 in 10.0 mi NW 6.9 mph - N/A   Overcast
6:55 AM 32.0 °F 24.8 °F 32.0 °F 100% 30.09 in 10.0 mi NNW 8.1 mph - 0.00 in   Overcast
7:12 AM 32.0 °F 24.8 °F 32.0 °F 100% 30.07 in 5.0 mi NNW 8.1 mph - N/A Snow Light Snow
7:26 AM 32.0 °F 25.6 °F 32.0 °F 100% 30.10 in 9.0 mi NW 6.9 mph - N/A Rain Light Rain
7:32 AM 32.0 °F 24.8 °F 32.0 °F 100% 30.11 in 9.0 mi NNW 8.1 mph - N/A   Overcast
7:42 AM 32.0 °F 24.8 °F 32.0 °F 100% 30.11 in 9.0 mi NNW 8.1 mph - N/A Snow Light Snow
7:52 AM 32.0 °F 23.0 °F 30.2 °F 93% 30.12 in 9.0 mi NNW 11.5 mph - N/A Snow Light Snow
7:55 AM 31.3 °F 22.7 °F 31.1 °F 99% 30.12 in 9.0 mi NNW 10.4 mph - 0.00 in Snow Light Snow
8:15 AM 32.0 °F 24.2 °F 32.0 °F 100% 30.12 in 10.0 mi NNW 9.2 mph - N/A Snow Light Snow
8:21 AM 32.0 °F 22.5 °F 32.0 °F 100% 30.12 in 4.0 mi NNW 12.7 mph 19.6 mph N/A Snow Light Snow
8:43 AM 32.0 °F 23.6 °F 30.2 °F 93% 30.12 in 10.0 mi NNW 10.4 mph - N/A Snow Light Snow
8:46 AM 32.0 °F 23.0 °F 32.0 °F 100% 30.12 in 4.0 mi NNW 11.5 mph - N/A Snow Light Snow
8:49 AM 32.0 °F 23.0 °F 30.2 °F 93% 30.13 in 10.0 mi NNW 11.5 mph 17.3 mph N/A Snow Light Snow
8:51 AM 32.0 °F 23.6 °F 32.0 °F 100% 30.13 in 4.0 mi NNW 10.4 mph 17.3 mph N/A Snow Light Snow
8:55 AM 31.3 °F 22.7 °F 31.1 °F 99% 30.13 in 10.0 mi NNW 10.4 mph - 0.00 in Snow Light Snow
8:58 AM 31.3 °F 22.7 °F 31.1 °F 99% 30.17 in 4.0 mi NNW 10.4 mph - 0.00 in Snow Light Snow
9:55 AM 31.5 °F 22.9 °F 30.4 °F 96% 30.14 in 8.0 mi NNW 10.4 mph - 0.00 in Snow Light Snow
9:56 AM 31.5 °F 22.9 °F 30.4 °F 96% 30.17 in 4.0 mi NNW 10.4 mph - 0.00 in Snow Light Snow
10:07 AM 32.0 °F 24.2 °F 30.2 °F 93% 30.14 in 8.0 mi NW 9.2 mph - N/A Snow Light Snow
10:09 AM 32.0 °F 24.2 °F 30.2 °F 93% 30.15 in 8.0 mi NW 9.2 mph - N/A Snow Light Snow
10:55 AM 31.3 °F 23.3 °F 30.2 °F 96% 30.16 in 9.0 mi NW 9.2 mph - 0.00 in Snow Light Snow
11:28 AM 32.0 °F 23.0 °F 28.4 °F 87% 30.16 in 10.0 mi NNW 11.5 mph 19.6 mph N/A Snow Light Snow
11:30 AM 32.0 °F 23.0 °F 28.4 °F 87% 30.13 in 6.0 mi NW 11.5 mph 19.6 mph N/A Snow Light Snow
11:31 AM 32.0 °F 24.2 °F 28.4 °F 87% 30.16 in 10.0 mi NW 9.2 mph 19.6 mph N/A Snow Light Snow
11:36 AM 32.0 °F 24.2 °F 28.4 °F 87% 30.15 in 10.0 mi NNW 9.2 mph - N/A Snow Light Snow
11:38 AM 32.0 °F 24.8 °F 28.4 °F 87% 30.12 in 6.0 mi NNW 8.1 mph - N/A Snow Light Snow
11:55 AM 32.4 °F 24.0 °F 28.6 °F 86% 30.15 in 10.0 mi NW 10.4 mph - 0.00 in Snow Light Snow
11:56 AM 32.4 °F 23.5 °F 28.6 °F 86% 30.19 in 8.0 mi NNW 11.5 mph - 0.00 in Snow Light Snow
12:55 PM 32.9 °F 24.1 °F 26.1 °F 76% 30.14 in 10.0 mi NNW 11.5 mph - N/A   Overcast
12:57 PM 32.0 °F 22.5 °F 26.6 °F 80% 30.17 in 10.0 mi NW 12.7 mph - N/A   Overcast
1:01 PM 32.0 °F 21.2 °F 26.6 °F 80% 30.14 in 10.0 mi NW 16.1 mph - N/A Rain Light Rain
1:03 PM 32.0 °F 21.6 °F 26.6 °F 80% 30.11 in 10.0 mi NW 15.0 mph - N/A Snow Light Snow
1:55 PM 31.8 °F 22.8 °F 26.6 °F 81% 30.14 in 10.0 mi NW 11.5 mph 20.7 mph 0.00 in Rain Light Freezing Rain
1:57 PM 31.8 °F 23.9 °F 26.6 °F 81% 30.17 in 10.0 mi NW 9.2 mph 20.7 mph 0.00 in Snow Light Snow
1:58 PM 32.0 °F 23.6 °F 26.6 °F 80% 30.14 in 10.0 mi NW 10.4 mph 19.6 mph N/A   Overcast
2:00 PM 32.0 °F 23.0 °F 26.6 °F 80% 30.11 in 10.0 mi NNW 11.5 mph 19.6 mph N/A Snow Light Snow
2:23 PM 32.0 °F 23.6 °F 24.8 °F 75% 30.14 in 10.0 mi NNW 10.4 mph - N/A   Overcast
2:33 PM 32.0 °F 24.2 °F 26.6 °F 80% 30.14 in 10.0 mi NW 9.2 mph - N/A   Overcast
2:34 PM 32.0 °F 24.2 °F 26.6 °F 80% 30.14 in 10.0 mi NW 9.2 mph - N/A Snow Light Snow
2:55 PM 32.2 °F 25.0 °F 25.5 °F 76% 30.15 in 10.0 mi NW 8.1 mph - 0.00 in Snow Light Snow
3:02 PM 32.0 °F 24.2 °F 24.8 °F 75% 30.14 in 10.0 mi NW 9.2 mph - N/A   Overcast
3:14 PM 32.0 °F 23.6 °F 24.8 °F 75% 30.15 in 10.0 mi NNW 10.4 mph - N/A   Overcast
3:26 PM 32.0 °F 24.2 °F 24.8 °F 75% 30.15 in 10.0 mi NW 9.2 mph - N/A   Overcast
3:29 PM 32.0 °F 23.6 °F 24.8 °F 75% 30.14 in 10.0 mi WNW 10.4 mph - N/A   Overcast
3:44 PM 32.0 °F 24.2 °F 24.8 °F 75% 30.15 in 10.0 mi NW 9.2 mph - N/A   Overcast
3:55 PM 32.2 °F 22.7 °F 23.9 °F 72% 30.15 in 10.0 mi WNW 12.7 mph - N/A   Overcast
4:07 PM 32.0 °F 23.6 °F 24.8 °F 75% 30.15 in 10.0 mi NNW 10.4 mph - N/A   Overcast
4:16 PM 32.0 °F 24.8 °F 24.8 °F 75% 30.15 in 6.0 mi NNW 8.1 mph - N/A Snow Light Snow
4:25 PM 32.0 °F 23.6 °F 24.8 °F 75% 30.16 in 10.0 mi NW 10.4 mph - N/A   Overcast
4:28 PM 32.0 °F 24.2 °F 24.8 °F 75% 30.16 in 10.0 mi NW 9.2 mph - N/A   Overcast
4:55 PM 31.6 °F 22.6 °F 24.4 °F 75% 30.16 in 10.0 mi NW 11.5 mph - 0.00 in   Overcast
5:12 PM 32.0 °F 23.6 °F 24.8 °F 75% 30.17 in 10.0 mi NW 10.4 mph - N/A   Overcast
5:13 PM 32.0 °F 23.6 °F 24.8 °F 75% 30.14 in 10.0 mi NW 10.4 mph - N/A Snow Light Snow
5:38 PM 32.0 °F 24.2 °F 24.8 °F 75% 30.17 in 10.0 mi NW 9.2 mph - N/A   Overcast
5:40 PM 32.0 °F 24.2 °F 24.8 °F 75% 30.15 in 8.0 mi NW 9.2 mph - N/A Snow Light Snow
5:55 PM 30.7 °F 21.4 °F 25.9 °F 82% 30.18 in 10.0 mi NW 11.5 mph - 0.00 in   Overcast
5:57 PM 30.7 °F 21.4 °F 25.9 °F 82% 30.22 in 9.0 mi NW 11.5 mph - 0.00 in Snow Light Snow
6:02 PM 30.2 °F 20.8 °F 26.6 °F 86% 30.18 in 10.0 mi NW 11.5 mph - N/A   Overcast
6:04 PM 32.0 °F 22.5 °F 26.6 °F 80% 30.15 in 9.0 mi NW 12.7 mph - N/A Snow Light Snow
6:55 PM 29.8 °F 20.3 °F 27.9 °F 92% 30.19 in 10.0 mi NW 11.5 mph - 0.00 in Snow Light Snow
6:57 PM 29.8 °F 21.5 °F 27.9 °F 92% 30.22 in 9.0 mi NW 9.2 mph - 0.00 in Snow Light Snow
7:18 PM 30.2 °F 22.6 °F 28.4 °F 93% 30.19 in 10.0 mi NW 8.1 mph - N/A Snow Light Snow
7:20 PM 30.2 °F 23.4 °F 28.4 °F 93% 30.16 in 9.0 mi NW 6.9 mph - N/A Snow Light Snow
7:25 PM 30.2 °F 21.9 °F 28.4 °F 93% 30.19 in 10.0 mi NW 9.2 mph - N/A   Overcast
7:26 PM 30.2 °F 21.9 °F 28.4 °F 93% 30.15 in 9.0 mi NW 9.2 mph - N/A Snow Light Snow
7:48 PM 30.2 °F 21.9 °F 26.6 °F 86% 30.19 in 10.0 mi WNW 9.2 mph - N/A   Overcast
7:49 PM 30.2 °F 21.9 °F 26.6 °F 86% 30.16 in 10.0 mi NW 9.2 mph - N/A Snow Light Snow
7:54 PM 30.2 °F 22.6 °F 26.6 °F 86% 30.19 in 10.0 mi NW 8.1 mph - N/A   Overcast
7:55 PM 30.0 °F 23.2 °F 27.1 °F 89% 30.19 in 10.0 mi WNW 6.9 mph - 0.00 in   Overcast
7:56 PM 30.0 °F 21.7 °F 27.1 °F 89% 30.23 in 10.0 mi WNW 9.2 mph - 0.00 in Snow Light Snow
8:02 PM 30.2 °F 21.3 °F 26.6 °F 86% 30.19 in 10.0 mi WNW 10.4 mph - N/A   Overcast
8:04 PM 30.2 °F 22.6 °F 26.6 °F 86% 30.16 in 10.0 mi NW 8.1 mph - N/A Snow Light Snow
8:13 PM 30.2 °F 23.4 °F 26.6 °F 86% 30.20 in 10.0 mi NW 6.9 mph - N/A   Overcast
8:19 PM 30.2 °F 24.3 °F 26.6 °F 86% 30.16 in 10.0 mi NW 5.8 mph - N/A Snow Light Snow
8:55 PM 29.7 °F 22.8 °F 26.4 °F 88% 30.20 in 10.0 mi Variable 6.9 mph - 0.00 in   Overcast
8:57 PM 29.7 °F 22.8 °F 26.4 °F 88% 30.24 in 10.0 mi NW 6.9 mph - 0.00 in   Overcast
9:55 PM 29.3 °F 21.5 °F 25.9 °F 87% 30.20 in 10.0 mi NW 8.1 mph - N/A   Overcast
10:55 PM 29.3 °F 21.5 °F 25.3 °F 85% 30.19 in 10.0 mi NW 8.1 mph - N/A   Overcast
11:55 PM 28.9 °F 20.4 °F 23.5 °F 80% 30.19 in 10.0 mi NW 9.2 mph - N/A   Overcast